Time;durP1;ratioP1;P1;durP2;ratioP2;P2;SDS_P1;SDS_P2;PMS_P1;PMS_P2;Temp;Humidity;BMP_temperature;BMP_pressure;BME280_temperature;BME280_humidity;BME280_pressure;Samples;Min_cycle;Max_cycle;Signal;HPM_P1;HPM_P2
2022/03/02 00:01:40;;;;;;;13.33;8.50;;;;;;;18.88;41.33;101174.69;5069769;28;20630;-61
2022/03/02 00:04:06;;;;;;;17.80;9.67;;;;;;;18.87;41.49;101181.63;5069455;28;20417;-61
2022/03/02 00:06:31;;;;;;;13.03;9.03;;;;;;;19.00;41.97;101178.34;5069104;28;20191;-60
2022/03/02 00:08:57;;;;;;;17.27;8.00;;;;;;;19.00;42.08;101172.63;5069473;28;20167;-60
2022/03/02 00:11:22;;;;;;;10.00;6.57;;;;;;;18.97;42.76;101173.34;5070252;28;20171;-60
2022/03/02 00:13:48;;;;;;;12.93;7.57;;;;;;;18.97;42.96;101172.53;5063347;28;20183;-60
2022/03/02 00:16:14;;;;;;;14.40;8.10;;;;;;;18.98;43.24;101172.19;5049595;28;20171;-60
2022/03/02 00:18:39;;;;;;;13.13;6.70;;;;;;;18.98;43.02;101168.47;5049675;28;20210;-60
2022/03/02 00:21:05;;;;;;;18.37;8.17;;;;;;;18.99;43.41;101173.84;5049375;28;20167;-60
2022/03/02 00:23:31;;;;;;;14.10;7.30;;;;;;;18.99;43.62;101164.41;5050004;28;20186;-60
2022/03/02 00:25:56;;;;;;;12.60;6.63;;;;;;;19.03;44.07;101173.94;5049077;28;20179;-60
2022/03/02 00:28:22;;;;;;;12.93;7.50;;;;;;;18.96;44.30;101177.41;5060984;28;20955;-60
2022/03/02 00:30:48;;;;;;;10.33;7.17;;;;;;;18.91;44.63;101180.53;5068836;28;20222;-60
2022/03/02 00:33:13;;;;;;;12.70;7.20;;;;;;;18.96;44.61;101177.41;5069616;28;20164;-60
2022/03/02 00:35:38;;;;;;;10.27;6.50;;;;;;;18.92;44.84;101173.59;5069864;28;20183;-60
2022/03/02 00:38:04;;;;;;;10.23;6.70;;;;;;;18.87;45.39;101168.13;5069646;28;20202;-60
2022/03/02 00:40:30;;;;;;;10.33;6.63;;;;;;;18.89;45.35;101164.91;5069368;28;20169;-62
2022/03/02 00:42:56;;;;;;;10.67;7.20;;;;;;;18.87;45.45;101153.81;5069567;28;20611;-60
2022/03/02 00:45:21;;;;;;;14.73;6.60;;;;;;;18.82;45.86;101153.28;5069749;28;20229;-60
2022/03/02 00:47:47;;;;;;;10.33;5.73;;;;;;;18.81;46.10;101152.41;5069305;28;20170;-60
2022/03/02 00:50:13;;;;;;;8.83;6.27;;;;;;;18.83;45.87;101143.47;5068932;28;20519;-60
2022/03/02 00:52:39;;;;;;;16.00;6.13;;;;;;;18.83;46.06;101154.94;5069937;28;20654;-61
2022/03/02 00:55:04;;;;;;;11.40;6.33;;;;;;;18.80;46.13;101158.50;5069569;28;20425;-61
2022/03/02 00:57:30;;;;;;;10.30;6.63;;;;;;;18.80;46.16;101159.34;5069476;28;20309;-60
2022/03/02 00:59:56;;;;;;;10.43;5.93;;;;;;;18.80;46.56;101159.34;5069071;28;20175;-60
2022/03/02 01:02:21;;;;;;;15.43;6.70;;;;;;;18.81;46.57;101152.41;5056342;28;20458;-60
2022/03/02 01:04:47;;;;;;;11.40;6.80;;;;;;;18.77;46.71;101150.66;5058105;28;21099;-60
2022/03/02 01:07:12;;;;;;;9.83;5.33;;;;;;;18.78;46.80;101135.16;5069409;28;20222;-60
2022/03/02 01:09:38;;;;;;;9.00;5.60;;;;;;;18.77;46.68;101131.44;5068817;28;20229;-61
2022/03/02 01:12:04;;;;;;;14.93;6.57;;;;;;;18.78;46.71;101126.56;5072925;28;20179;-60
2022/03/02 01:14:29;;;;;;;11.67;5.40;;;;;;;18.77;47.21;101128.59;5060566;28;20641;-61
2022/03/02 01:16:54;;;;;;;9.07;5.53;;;;;;;18.74;47.16;101117.88;5052717;28;20172;-61
2022/03/02 01:19:20;;;;;;;8.80;5.90;;;;;;;18.78;46.81;101118.84;5052441;28;20245;-61
2022/03/02 01:21:45;;;;;;;11.60;6.03;;;;;;;18.73;47.24;101116.22;5065698;28;20197;-60
2022/03/02 01:24:11;;;;;;;8.30;5.80;;;;;;;18.74;47.50;101117.88;5073196;28;20225;-61
2022/03/02 01:26:36;;;;;;;9.50;5.50;;;;;;;18.74;47.40;101123.63;5074513;28;20568;-61
2022/03/02 01:29:04;;;;;;;11.57;5.73;;;;;;;18.77;47.42;101113.47;5070484;28;20163;-61
2022/03/02 01:31:30;;;;;;;13.27;6.17;;;;;;;18.74;47.48;101112.16;5071321;28;20691;-61
2022/03/02 01:33:55;;;;;;;9.23;5.10;;;;;;;18.76;47.47;101109.78;5072546;28;20459;-61
2022/03/02 01:36:21;;;;;;;7.20;5.07;;;;;;;18.78;47.58;101104.53;5073015;28;20186;-61
2022/03/02 01:38:47;;;;;;;10.60;5.60;;;;;;;18.74;47.92;101106.44;5068964;28;20198;-61
2022/03/02 01:41:16;;;;;;;8.10;4.93;;;;;;;18.81;47.57;101105.84;5072119;28;20463;-61
2022/03/02 01:43:43;;;;;;;8.57;5.30;;;;;;;18.79;47.58;101103.34;5072810;28;20267;-61
2022/03/02 01:46:08;;;;;;;7.30;5.17;;;;;;;18.79;47.30;101109.06;5072276;28;20505;-61
2022/03/02 01:48:33;;;;;;;8.53;5.10;;;;;;;18.82;47.55;101111.16;5072420;28;20425;-61
2022/03/02 01:50:59;;;;;;;10.47;5.40;;;;;;;18.77;47.78;101097.13;5050479;28;20168;-61
2022/03/02 01:53:24;;;;;;;11.30;5.10;;;;;;;18.76;48.27;101098.31;5072537;28;20482;-61
2022/03/02 01:55:50;;;;;;;8.33;5.30;;;;;;;18.76;47.91;101081.16;5072230;28;20167;-61
2022/03/02 01:58:15;;;;;;;10.30;5.80;;;;;;;18.76;48.15;101084.03;5074763;28;20282;-62
2022/03/02 02:00:43;;;;;;;12.30;5.20;;;;;;;18.78;47.79;101084.50;5071159;28;20602;-61
2022/03/02 02:03:08;;;;;;;7.60;5.30;;;;;;;18.78;48.13;101077.94;5072347;28;20233;-61
2022/03/02 02:05:34;;;;;;;7.83;4.87;;;;;;;18.73;48.34;101087.63;5071632;28;20941;-61
2022/03/02 02:08:00;;;;;;;8.80;5.30;;;;;;;18.76;48.15;101084.03;5071891;28;20219;-61
2022/03/02 02:10:25;;;;;;;8.07;5.20;;;;;;;18.75;48.21;101092.97;5071547;28;20414;-61
2022/03/02 02:12:51;;;;;;;8.13;5.60;;;;;;;18.73;48.20;101096.22;5072081;28;20170;-61
2022/03/02 02:15:16;;;;;;;9.00;5.40;;;;;;;18.74;48.32;101089.28;5052598;28;20263;-62
2022/03/02 02:17:42;;;;;;;9.67;5.30;;;;;;;18.74;48.23;101074.97;5052054;28;20652;-61
2022/03/02 02:20:08;;;;;;;8.37;5.20;;;;;;;18.75;48.07;101076.63;5051275;28;20191;-61
2022/03/02 02:22:45;;;;;;;8.20;4.90;;;;;;;18.71;48.33;101078.56;5033517;28;20211;-61
2022/03/02 02:25:10;;;;;;;8.77;5.27;;;;;;;18.71;48.46;101083.47;5063237;28;20844;-61
2022/03/02 02:27:36;;;;;;;8.60;5.30;;;;;;;18.69;48.72;101077.25;5071263;28;20406;-61
2022/03/02 02:30:02;;;;;;;7.43;5.10;;;;;;;18.68;48.65;101075.59;5053221;28;20261;-61
2022/03/02 02:32:27;;;;;;;8.50;5.70;;;;;;;18.73;48.51;101078.19;5071817;28;20183;-61
2022/03/02 02:34:52;;;;;;;8.33;5.10;;;;;;;18.68;48.56;101070.72;5071586;28;20265;-61
2022/03/02 02:37:18;;;;;;;8.23;5.10;;;;;;;18.70;48.49;101070.34;5070845;28;20249;-61
2022/03/02 02:39:53;;;;;;;9.40;4.70;;;;;;;18.72;48.35;101071.63;5071037;28;20174;-61
2022/03/02 02:42:18;;;;;;;8.73;5.27;;;;;;;18.68;48.90;101073.59;5070082;28;20540;-61
2022/03/02 02:44:44;;;;;;;7.17;4.93;;;;;;;18.68;48.71;101067.88;5071511;28;20421;-61
2022/03/02 02:47:11;;;;;;;9.50;5.10;;;;;;;18.68;48.52;101078.47;5071333;28;20565;-61
2022/03/02 02:49:36;;;;;;;8.40;4.93;;;;;;;18.65;48.72;101077.16;5069383;28;20183;-61
2022/03/02 02:52:02;;;;;;;8.80;5.07;;;;;;;18.64;48.53;101069.78;5071118;28;20437;-61
2022/03/02 02:54:27;;;;;;;7.97;5.10;;;;;;;18.65;48.67;101065.72;5071449;28;20183;-61
2022/03/02 02:56:52;;;;;;;9.47;5.10;;;;;;;18.65;48.81;101060.00;5070710;28;20236;-61
2022/03/02 02:59:18;;;;;;;8.90;5.63;;;;;;;18.65;49.01;101059.16;5070699;28;20685;-61
2022/03/02 03:01:43;;;;;;;7.73;4.87;;;;;;;18.68;48.96;101049.84;5070528;28;20171;-61
2022/03/02 03:04:12;;;;;;;7.17;4.80;;;;;;;18.63;48.73;101059.53;5071401;28;20555;-61
2022/03/02 03:06:56;;;;;;;8.50;4.80;;;;;;;18.66;48.72;101061.66;4817270;28;20195;-61
2022/03/02 03:09:22;;;;;;;10.00;5.00;;;;;;;18.64;48.82;101058.34;5027739;28;20509;-61
2022/03/02 03:11:47;;;;;;;8.00;5.27;;;;;;;18.65;49.23;101054.28;5031049;28;20911;-61
2022/03/02 03:14:13;;;;;;;9.60;5.57;;;;;;;18.63;48.90;101048.09;5021062;28;20192;-61
2022/03/02 03:16:42;;;;;;;11.30;5.20;;;;;;;18.65;48.71;101048.56;5011015;28;20177;-61
2022/03/02 03:19:07;;;;;;;8.13;4.77;;;;;;;18.61;48.89;101041.91;5014785;28;20211;-61
2022/03/02 03:21:33;;;;;;;9.00;4.80;;;;;;;18.61;48.79;101039.03;5032022;28;20814;-61
2022/03/02 03:23:58;;;;;;;9.50;4.40;;;;;;;18.65;49.07;101037.13;5030162;28;20203;-61
2022/03/02 03:26:24;;;;;;;8.47;4.93;;;;;;;18.63;48.93;101038.69;5030014;28;20207;-61
2022/03/02 03:28:49;;;;;;;7.47;4.63;;;;;;;18.62;49.22;101023.53;5030503;28;20169;-61
2022/03/02 03:31:18;;;;;;;7.00;4.50;;;;;;;18.65;48.87;101027.69;5020374;28;20311;-61
2022/03/02 03:33:43;;;;;;;7.77;5.10;;;;;;;18.64;49.09;101038.31;5010849;28;20177;-61
2022/03/02 03:36:09;;;;;;;8.20;5.00;;;;;;;18.63;49.16;101030.09;5029633;28;20914;-62
2022/03/02 03:38:34;;;;;;;8.60;4.80;;;;;;;18.62;48.91;101031.28;5028690;28;20196;-61
2022/03/02 03:41:00;;;;;;;6.20;4.23;;;;;;;18.64;49.26;101026.88;5032845;28;20172;-60
2022/03/02 03:43:25;;;;;;;7.70;4.73;;;;;;;18.64;49.02;101035.47;5029505;28;20176;-59
2022/03/02 03:45:51;;;;;;;8.00;4.97;;;;;;;18.62;49.01;101029.25;5030080;28;20541;-60
2022/03/02 03:48:16;;;;;;;8.07;5.47;;;;;;;18.65;49.46;101030.56;5030465;28;20636;-60
2022/03/02 03:50:42;;;;;;;7.50;4.80;;;;;;;18.62;49.25;101032.13;5030160;28;20172;-60
2022/03/02 03:53:08;;;;;;;7.67;5.20;;;;;;;18.65;49.05;101034.25;5030397;28;20707;-60
2022/03/02 03:55:34;;;;;;;7.40;4.70;;;;;;;18.62;49.08;101023.53;5030523;28;20180;-60
2022/03/02 03:57:59;;;;;;;9.30;5.23;;;;;;;18.60;49.05;101025.94;5030055;28;20958;-60
2022/03/02 04:00:24;;;;;;;7.10;4.37;;;;;;;18.61;48.93;101033.31;5029812;28;20176;-60
2022/03/02 04:02:50;;;;;;;5.20;4.03;;;;;;;18.62;49.37;101026.38;5030077;28;20179;-60
2022/03/02 04:05:16;;;;;;;7.40;4.43;;;;;;;18.63;49.33;101025.22;5030738;28;20204;-60
2022/03/02 04:07:42;;;;;;;6.40;4.30;;;;;;;18.62;49.12;101023.53;5047787;28;20293;-60
2022/03/02 04:10:08;;;;;;;7.30;4.93;;;;;;;18.63;49.33;101025.22;5049417;28;20833;-60
2022/03/02 04:12:33;;;;;;;8.90;4.90;;;;;;;18.61;49.33;101026.78;5050295;28;20584;-60
2022/03/02 04:14:59;;;;;;;7.63;4.77;;;;;;;18.62;49.26;101022.72;5049817;28;20418;-60
2022/03/02 04:17:24;;;;;;;6.83;5.10;;;;;;;18.62;49.19;101014.94;5049754;28;20294;-60
2022/03/02 04:19:50;;;;;;;6.97;4.93;;;;;;;18.61;49.39;101021.88;5049477;28;20172;-60
2022/03/02 04:22:16;;;;;;;6.80;4.73;;;;;;;18.59;49.32;101012.84;5049655;28;20183;-60
2022/03/02 04:24:42;;;;;;;6.90;4.60;;;;;;;18.60;49.09;101013.66;5034530;28;20201;-60
2022/03/02 04:27:07;;;;;;;6.10;4.17;;;;;;;18.60;48.99;101007.94;5050111;28;20501;-60
2022/03/02 04:29:33;;;;;;;7.33;4.13;;;;;;;18.60;49.38;101007.94;5049579;28;20208;-60
2022/03/02 04:31:58;;;;;;;10.07;4.80;;;;;;;18.61;49.48;101001.03;5049523;28;20627;-60
2022/03/02 04:34:23;;;;;;;6.80;4.20;;;;;;;18.62;49.49;101008.41;5055501;28;20179;-60
2022/03/02 04:36:49;;;;;;;7.17;4.40;;;;;;;18.61;49.49;100999.00;5069753;28;20239;-60
2022/03/02 04:39:14;;;;;;;7.27;4.40;;;;;;;18.60;49.59;100997.34;5069539;28;20202;-60
2022/03/02 04:41:40;;;;;;;6.87;4.27;;;;;;;18.64;49.02;101001.13;5070318;28;20225;-60
2022/03/02 04:44:05;;;;;;;7.37;4.63;;;;;;;18.63;49.01;101002.34;5069803;28;20163;-60
2022/03/02 04:46:31;;;;;;;6.90;4.67;;;;;;;18.63;49.21;101001.50;5073627;28;20175;-60
2022/03/02 04:49:10;;;;;;;5.67;4.07;;;;;;;18.64;49.24;101001.13;5073344;28;20179;-60
2022/03/02 04:51:37;;;;;;;6.50;4.50;;;;;;;18.60;49.13;100996.50;5073420;28;20666;-60
2022/03/02 04:54:03;;;;;;;8.00;4.47;;;;;;;18.60;49.70;101005.06;5073187;28;20417;-60
2022/03/02 04:56:31;;;;;;;7.00;4.40;;;;;;;18.58;49.59;100994.03;5073449;28;20466;-60
2022/03/02 04:58:56;;;;;;;6.63;4.77;;;;;;;18.60;49.43;100993.63;5072819;28;20195;-60
2022/03/02 05:01:22;;;;;;;6.90;4.23;;;;;;;18.62;49.16;101000.66;5073219;28;20811;-60
2022/03/02 05:03:47;;;;;;;6.03;4.60;;;;;;;18.62;49.22;100991.25;5054148;28;20224;-60
2022/03/02 05:06:13;;;;;;;4.93;3.70;;;;;;;18.62;49.14;100994.94;5056464;28;20199;-60
2022/03/02 05:08:38;;;;;;;7.03;5.07;;;;;;;18.64;48.98;100998.28;5061611;28;20218;-60
2022/03/02 05:11:03;;;;;;;6.63;4.70;;;;;;;18.64;49.06;101001.13;5072608;28;20229;-60
2022/03/02 05:13:29;;;;;;;6.57;4.60;;;;;;;18.61;49.18;100998.19;5069033;28;20225;-60
2022/03/02 05:15:54;;;;;;;5.77;4.27;;;;;;;18.60;49.45;100990.78;5053267;28;20179;-61
2022/03/02 05:18:20;;;;;;;6.43;3.90;;;;;;;18.60;49.35;100985.06;5052734;28;20556;-60
2022/03/02 05:20:45;;;;;;;6.43;4.37;;;;;;;18.60;49.40;100997.34;5054751;28;20639;-60
2022/03/02 05:23:11;;;;;;;5.70;3.80;;;;;;;18.63;49.05;101002.34;5073805;28;20171;-60
2022/03/02 05:25:37;;;;;;;7.10;4.50;;;;;;;18.68;49.30;100986.94;5073546;28;20229;-60
2022/03/02 05:28:02;;;;;;;6.07;4.37;;;;;;;18.61;49.12;100983.88;5072541;28;20300;-60
2022/03/02 05:30:28;;;;;;;6.47;4.50;;;;;;;18.59;49.34;100989.13;5064790;28;20505;-60
2022/03/02 05:32:53;;;;;;;8.83;4.50;;;;;;;18.60;49.30;100979.34;5052787;28;20176;-60
2022/03/02 05:35:18;;;;;;;6.93;4.23;;;;;;;18.61;49.05;100984.69;5065895;28;20183;-60
2022/03/02 05:37:44;;;;;;;7.47;4.43;;;;;;;18.63;49.31;100979.47;5073016;28;20250;-60
2022/03/02 05:40:12;;;;;;;7.27;4.73;;;;;;;18.62;49.09;100977.78;5075179;28;20206;-60
2022/03/02 05:42:37;;;;;;;5.13;3.77;;;;;;;18.63;49.23;100975.75;5052747;28;20198;-61
2022/03/02 05:45:03;;;;;;;7.03;4.47;;;;;;;18.64;49.34;100975.41;5052780;28;20406;-62
2022/03/02 05:47:28;;;;;;;6.20;4.03;;;;;;;18.62;49.16;100980.63;5052586;28;20168;-62
2022/03/02 05:49:54;;;;;;;6.20;3.87;;;;;;;18.61;49.42;100981.84;5051645;28;20655;-62
2022/03/02 05:52:19;;;;;;;5.97;4.30;;;;;;;18.63;49.31;100984.34;5052474;28;20188;-62
2022/03/02 05:54:45;;;;;;;5.60;4.07;;;;;;;18.66;49.04;100992.19;5052352;28;20180;-62
2022/03/02 05:57:10;;;;;;;5.47;4.07;;;;;;;18.65;49.27;100994.22;5051924;28;20175;-62
2022/03/02 05:59:35;;;;;;;6.27;3.90;;;;;;;18.61;49.24;100992.47;5051623;28;20203;-62
2022/03/02 06:02:01;;;;;;;6.03;3.70;;;;;;;18.66;49.09;100997.91;5052434;28;20227;-62
2022/03/02 06:04:26;;;;;;;7.10;4.67;;;;;;;18.62;49.25;100997.78;5058182;28;20191;-62
2022/03/02 06:06:52;;;;;;;6.23;4.33;;;;;;;18.63;49.37;100996.63;5072021;28;20658;-62
2022/03/02 06:09:17;;;;;;;8.27;5.13;;;;;;;18.64;49.21;100991.72;5070051;28;20172;-62
2022/03/02 06:11:43;;;;;;;6.03;4.13;;;;;;;18.66;49.32;101006.50;5071970;28;20181;-61
2022/03/02 06:14:12;;;;;;;5.67;3.80;;;;;;;18.62;49.45;101012.09;5068828;28;20182;-62
2022/03/02 06:16:38;;;;;;;5.97;3.80;;;;;;;18.61;49.13;101015.34;5072127;28;20470;-61
2022/03/02 06:19:04;;;;;;;6.87;4.43;;;;;;;18.62;49.50;101014.94;5071244;28;20481;-61
2022/03/02 06:21:30;;;;;;;6.33;4.10;;;;;;;18.64;49.39;101015.44;5071819;28;20171;-61
2022/03/02 06:23:55;;;;;;;11.77;4.73;;;;;;;18.62;49.50;101006.38;5071386;28;20171;-60
2022/03/02 06:26:22;;;;;;;7.77;4.80;;;;;;;18.61;49.36;101004.72;5072003;28;20901;-61
2022/03/02 06:28:48;;;;;;;6.20;4.10;;;;;;;18.62;49.23;100994.13;5071485;28;20175;-61
2022/03/02 06:31:13;;;;;;;6.50;3.80;;;;;;;18.61;49.43;100999.00;5071525;28;20421;-61
2022/03/02 06:33:39;;;;;;;5.00;4.07;;;;;;;18.65;49.35;100999.94;5063092;28;20492;-60
2022/03/02 06:36:05;;;;;;;5.60;3.73;;;;;;;18.67;49.24;100993.84;5071164;28;20558;-61
2022/03/02 06:38:30;;;;;;;5.87;4.07;;;;;;;18.64;49.56;101004.00;5071447;28;20636;-61
2022/03/02 06:41:28;;;;;;;6.83;4.30;;;;;;;18.64;49.36;100998.28;5071057;28;20191;-60
2022/03/02 06:44:05;;;;;;;6.03;4.10;;;;;;;18.63;49.05;100996.63;5071176;28;20155;-61
2022/03/02 06:46:40;;;;;;;6.93;3.87;;;;;;;18.65;49.17;100999.94;5070769;28;20791;-61
2022/03/02 06:49:29;;;;;;;8.70;4.47;;;;;;;18.61;49.60;100999.00;5070302;28;20423;-61
2022/03/02 06:51:58;;;;;;;5.40;3.63;;;;;;;18.66;49.08;101000.78;5071279;28;20421;-61
2022/03/02 06:54:30;;;;;;;6.53;4.43;;;;;;;18.66;49.48;100993.00;5071145;28;20409;-61
2022/03/02 06:56:56;;;;;;;5.10;3.60;;;;;;;18.65;49.18;100997.06;5070904;28;20444;-61
2022/03/02 06:59:29;;;;;;;8.33;4.23;;;;;;;18.63;49.25;100996.63;5065296;28;20458;-61
2022/03/02 07:01:58;;;;;;;5.43;3.87;;;;;;;18.66;49.04;101001.59;5050993;28;20920;-61
2022/03/02 07:04:24;;;;;;;6.63;3.77;;;;;;;18.67;49.07;100991.81;5056876;28;20414;-62
2022/03/02 07:06:49;;;;;;;6.30;4.00;;;;;;;18.67;49.33;100994.66;5070188;28;21042;-60
2022/03/02 07:09:15;;;;;;;6.17;3.80;;;;;;;18.68;49.19;100999.22;5069036;28;20171;-61
2022/03/02 07:11:41;;;;;;;5.90;3.90;;;;;;;18.66;49.22;101001.59;5053518;28;20288;-60
2022/03/02 07:14:07;;;;;;;5.97;4.17;;;;;;;18.66;49.35;101004.44;5069689;28;20909;-61
2022/03/02 07:16:32;;;;;;;6.57;4.57;;;;;;;18.68;49.17;101002.06;5070544;28;20228;-61
2022/03/02 07:18:58;;;;;;;5.17;3.60;;;;;;;18.66;49.27;101004.44;5052251;28;20461;-61
2022/03/02 07:21:25;;;;;;;8.13;4.30;;;;;;;18.72;48.98;101008.72;5067918;28;20548;-61
2022/03/02 07:23:55;;;;;;;13.73;9.40;;;;;;;18.21;40.79;101011.66;5067884;28;20186;-64
2022/03/02 07:26:21;;;;;;;19.60;14.00;;;;;;;17.96;42.83;101010.84;5034465;28;20415;-62
2022/03/02 07:28:47;;;;;;;21.87;15.37;;;;;;;18.41;42.48;101008.63;5063780;28;20434;-60
2022/03/02 07:31:13;;;;;;;23.33;14.47;;;;;;;18.65;41.69;101005.66;5069027;28;20451;-61
2022/03/02 07:33:41;;;;;;;24.67;14.63;;;;;;;18.82;40.78;101002.47;5066803;28;20274;-60
2022/03/02 07:36:08;;;;;;;16.80;13.27;;;;;;;18.86;41.53;101017.69;5063590;28;20186;-62
2022/03/02 07:38:33;;;;;;;22.70;13.10;;;;;;;18.93;41.93;101028.50;5068528;28;20449;-62
2022/03/02 07:40:59;;;;;;;16.97;11.87;;;;;;;18.94;42.03;101024.44;5054409;28;20803;-61
2022/03/02 07:43:28;;;;;;;18.80;12.20;;;;;;;19.06;42.69;101013.75;5054132;28;20183;-62
2022/03/02 07:45:57;;;;;;;15.60;11.60;;;;;;;19.36;42.07;101015.03;5051760;28;20552;-62
2022/03/02 07:48:22;;;;;;;21.10;12.07;;;;;;;19.34;43.46;101005.97;5049652;28;20418;-61
2022/03/02 07:50:48;;;;;;;20.40;12.43;;;;;;;19.44;43.45;101011.16;5049092;28;20433;-61
2022/03/02 07:53:15;;;;;;;16.70;10.73;;;;;;;19.36;44.29;101003.56;5047828;28;20225;-62
2022/03/02 07:55:40;;;;;;;16.67;10.60;;;;;;;19.33;44.28;101018.63;5038375;28;20262;-62
2022/03/02 07:58:06;;;;;;;15.67;10.50;;;;;;;19.42;44.02;101012.72;5058593;28;20500;-62
2022/03/02 08:00:31;;;;;;;17.47;11.27;;;;;;;19.57;43.79;101009.84;5048969;28;20176;-62
2022/03/02 08:03:00;;;;;;;17.57;11.77;;;;;;;19.48;43.23;101012.09;5048862;28;20167;-61
2022/03/02 08:05:26;;;;;;;14.67;10.50;;;;;;;19.44;42.78;101014.00;5063450;28;20202;-62
2022/03/02 08:07:51;;;;;;;13.93;10.37;;;;;;;19.20;43.35;101014.16;5069408;28;20556;-62
2022/03/02 08:10:17;;;;;;;20.40;11.00;;;;;;;19.08;43.56;101019.13;5061161;28;20191;-62
2022/03/02 08:12:43;;;;;;;17.63;11.40;;;;;;;19.13;44.86;101022.56;5069037;28;20193;-63
2022/03/02 08:15:09;;;;;;;14.23;10.33;;;;;;;19.08;44.98;101017.13;5051155;28;20426;-62
2022/03/02 08:17:34;;;;;;;14.17;9.90;;;;;;;19.05;45.31;101014.13;5049376;28;20584;-63
2022/03/02 08:20:00;;;;;;;15.10;9.03;;;;;;;19.01;44.21;101028.34;5052437;28;20192;-62
2022/03/02 08:22:25;;;;;;;15.37;9.50;;;;;;;19.02;45.11;101030.00;5063775;28;20748;-63
2022/03/02 08:25:06;;;;;;;18.33;10.30;;;;;;;19.02;45.64;101035.72;5057834;28;20175;-63
2022/03/02 08:27:31;;;;;;;15.17;9.90;;;;;;;18.99;45.53;101033.63;5027665;28;20231;-62
2022/03/02 08:29:57;;;;;;;16.47;10.37;;;;;;;19.02;45.51;101032.88;5056612;28;20413;-62
2022/03/02 08:32:24;;;;;;;15.20;10.00;;;;;;;19.03;44.92;101034.56;5073419;28;20193;-62
2022/03/02 08:34:50;;;;;;;17.40;11.20;;;;;;;19.06;45.46;101021.53;5072461;28;20445;-62
2022/03/02 08:37:17;;;;;;;17.37;10.40;;;;;;;19.03;45.81;101019.41;5057839;28;20427;-62
2022/03/02 08:39:43;;;;;;;15.80;9.30;;;;;;;19.07;46.32;101006.84;5075019;28;20230;-62
2022/03/02 08:42:08;;;;;;;16.53;9.43;;;;;;;18.94;46.19;101001.56;5065878;28;20819;-62
2022/03/02 08:44:35;;;;;;;19.17;10.70;;;;;;;18.87;44.11;101002.19;5055990;28;20654;-62
2022/03/02 08:47:00;;;;;;;14.40;11.20;;;;;;;18.81;44.66;100986.50;5021412;28;20191;-62
2022/03/02 08:49:26;;;;;;;15.53;10.90;;;;;;;18.77;44.29;100994.13;5069094;28;20901;-62
2022/03/02 08:51:51;;;;;;;14.50;10.53;;;;;;;18.77;44.36;100997.00;5075204;28;20175;-62
2022/03/02 08:54:18;;;;;;;16.53;10.13;;;;;;;18.74;44.54;101002.63;5036241;28;20191;-62
2022/03/02 08:56:43;;;;;;;17.63;9.60;;;;;;;18.70;46.49;100991.09;5060329;28;20180;-61
2022/03/02 08:59:14;;;;;;;18.50;10.53;;;;;;;18.75;46.79;101005.13;5062930;28;20509;-60
2022/03/02 09:01:50;;;;;;;34.80;10.90;;;;;;;18.70;47.18;101011.13;5072295;28;20238;-61
2022/03/02 09:04:18;;;;;;;23.70;12.77;;;;;;;18.76;45.61;101012.50;5073884;28;20442;-61
2022/03/02 09:06:45;;;;;;;22.80;11.33;;;;;;;18.74;46.08;101014.06;5073390;28;20440;-61
2022/03/02 09:09:10;;;;;;;24.17;12.20;;;;;;;18.78;45.99;101015.84;5073211;28;20424;-61
2022/03/02 09:11:38;;;;;;;26.30;10.10;;;;;;;18.84;45.77;101014.38;5055490;28;20504;-61
2022/03/02 09:14:03;;;;;;;18.30;9.53;;;;;;;18.85;46.12;101006.63;5065108;28;20278;-61
2022/03/02 09:16:29;;;;;;;21.70;9.93;;;;;;;18.93;45.91;101003.59;5067099;28;20842;-61
2022/03/02 09:18:54;;;;;;;25.57;11.53;;;;;;;18.86;46.56;101006.25;5073431;28;20195;-61
2022/03/02 09:21:20;;;;;;;22.13;9.57;;;;;;;18.95;46.10;101006.09;5075301;28;20169;-61
2022/03/02 09:23:46;;;;;;;18.83;10.37;;;;;;;18.97;46.35;101001.66;5057185;28;20171;-61
2022/03/02 09:26:13;;;;;;;22.53;10.23;;;;;;;18.88;46.88;100992.44;5076047;28;20209;-61
2022/03/02 09:28:40;;;;;;;16.80;9.73;;;;;;;18.91;46.43;100985.16;5075613;28;20585;-61
2022/03/02 09:31:07;;;;;;;16.50;9.30;;;;;;;18.85;46.89;100986.59;5042309;28;20421;-61
2022/03/02 09:33:34;;;;;;;23.03;9.43;;;;;;;18.83;47.17;100986.97;5056471;28;20993;-61
2022/03/02 09:36:04;;;;;;;18.90;9.30;;;;;;;18.81;47.45;100988.53;5089546;28;20435;-61
2022/03/02 09:38:32;;;;;;;16.67;9.40;;;;;;;18.81;47.42;100992.22;5058843;28;20442;-61
2022/03/02 09:41:05;;;;;;;17.77;10.30;;;;;;;18.82;47.42;100978.75;5033810;28;20504;-61
2022/03/02 09:43:31;;;;;;;19.63;9.20;;;;;;;18.82;47.21;100981.63;5057536;28;20459;-61
2022/03/02 09:45:57;;;;;;;20.30;8.93;;;;;;;18.82;47.35;100985.28;5065200;28;21271;-61
2022/03/02 09:48:33;;;;;;;14.40;8.87;;;;;;;18.84;47.35;100980.06;5053852;28;20414;-61
2022/03/02 09:51:02;;;;;;;17.23;8.57;;;;;;;18.80;47.65;100979.13;5053321;28;20257;-61
2022/03/02 09:53:29;;;;;;;15.70;8.00;;;;;;;18.82;47.68;100978.75;5071914;28;20412;-61
2022/03/02 09:55:55;;;;;;;16.10;8.23;;;;;;;18.83;47.64;100972.69;5071423;28;20413;-61
2022/03/02 09:58:21;;;;;;;15.83;7.83;;;;;;;18.82;47.63;100976.72;5071782;28;20451;-61
2022/03/02 10:00:47;;;;;;;17.00;7.93;;;;;;;18.84;47.53;100980.06;5071206;28;20965;-61
2022/03/02 10:03:12;;;;;;;15.60;8.70;;;;;;;18.82;47.92;100988.16;5071473;28;20174;-61
2022/03/02 10:05:38;;;;;;;15.37;8.37;;;;;;;18.82;47.95;100976.72;5053651;28;20206;-61
2022/03/02 10:08:05;;;;;;;17.60;8.30;;;;;;;18.87;47.71;100970.72;5053110;28;20206;-61
2022/03/02 10:10:36;;;;;;;21.57;9.37;;;;;;;18.82;47.53;100975.91;5053197;28;20591;-61
2022/03/02 10:13:03;;;;;;;12.33;8.23;;;;;;;18.80;47.86;100976.25;5088579;28;20409;-61
2022/03/02 10:15:29;;;;;;;15.53;7.67;;;;;;;18.82;47.63;100973.03;5071246;28;20416;-61
2022/03/02 10:17:57;;;;;;;14.43;8.47;;;;;;;18.82;47.59;100971.00;5070885;28;20449;-62
2022/03/02 10:20:28;;;;;;;14.40;8.30;;;;;;;18.84;47.98;100974.34;5052960;28;20410;-61
2022/03/02 10:23:12;;;;;;;13.53;7.10;;;;;;;18.83;47.88;100972.69;5071267;28;20900;-61
2022/03/02 10:25:45;;;;;;;12.53;7.40;;;;;;;18.84;47.91;100973.50;5065948;28;20821;-61
2022/03/02 10:28:11;;;;;;;13.90;8.20;;;;;;;18.83;48.15;100981.25;5050883;28;20427;-61
2022/03/02 10:30:39;;;;;;;20.43;8.00;;;;;;;18.82;47.91;100978.75;5016320;28;20414;-61
2022/03/02 10:33:21;;;;;;;12.73;7.13;;;;;;;18.81;47.88;100979.97;5033255;28;20203;-63
2022/03/02 10:36:05;;;;;;;15.77;8.20;;;;;;;18.80;48.02;100990.56;5068386;28;20437;-61
2022/03/02 10:38:43;;;;;;;15.33;7.57;;;;;;;18.86;48.06;100983.38;5070530;28;20598;-61
2022/03/02 10:41:08;;;;;;;13.57;7.60;;;;;;;18.87;47.81;100979.31;5053157;28;20713;-61
2022/03/02 10:43:40;;;;;;;12.93;8.10;;;;;;;18.85;47.99;100981.72;5070016;28;20423;-61
2022/03/02 10:46:06;;;;;;;15.30;7.80;;;;;;;18.84;48.13;100980.06;5071038;28;20183;-61
2022/03/02 10:48:42;;;;;;;17.07;7.57;;;;;;;18.85;48.16;100976.00;5052943;28;20417;-61
2022/03/02 10:51:09;;;;;;;34.67;8.67;;;;;;;18.85;48.18;100978.00;5035389;28;20433;-61
2022/03/02 10:53:36;;;;;;;14.80;7.57;;;;;;;18.91;47.87;100977.38;5032860;28;20500;-61
2022/03/02 10:56:04;;;;;;;13.53;8.10;;;;;;;18.86;48.04;100980.50;5032962;28;20449;-61
2022/03/02 10:58:29;;;;;;;12.40;7.87;;;;;;;18.87;48.17;100981.34;5050300;28;20533;-61
2022/03/02 11:00:55;;;;;;;12.70;7.60;;;;;;;18.87;48.19;100972.78;5014428;28;20506;-62
2022/03/02 11:03:20;;;;;;;10.23;7.73;;;;;;;18.90;48.15;100977.72;5050428;28;20176;-61
2022/03/02 11:05:46;;;;;;;10.93;7.10;;;;;;;18.86;47.98;100963.34;5067547;28;20199;-61
2022/03/02 11:08:11;;;;;;;11.60;7.63;;;;;;;18.88;48.09;100962.97;5070307;28;20241;-61
2022/03/02 11:10:37;;;;;;;8.50;6.47;;;;;;;18.88;48.22;100963.81;5069942;28;20222;-61
2022/03/02 11:13:14;;;;;;;10.37;6.53;;;;;;;18.88;48.26;100945.81;5069743;28;20634;-61
2022/03/02 11:15:52;;;;;;;10.90;6.43;;;;;;;18.90;48.04;100944.25;5050163;28;20505;-61
2022/03/02 11:18:19;;;;;;;10.27;7.13;;;;;;;18.91;48.24;100953.69;5049782;28;20458;-61